createdAt,value
2022-09-28T00:01:24.150Z,12.47
2022-09-28T00:04:12.104Z,11.40
2022-09-28T00:06:59.569Z,14.50
2022-09-28T00:09:46.418Z,12.30
2022-09-28T00:12:33.697Z,13.80
2022-09-28T00:15:20.698Z,11.57
2022-09-28T00:18:07.630Z,13.60
2022-09-28T00:21:05.671Z,13.00
2022-09-28T00:24:12.945Z,10.40
2022-09-28T00:27:01.556Z,11.20
2022-09-28T00:29:48.471Z,11.80
2022-09-28T00:32:35.695Z,11.10
2022-09-28T00:35:22.556Z,11.53
2022-09-28T00:38:09.454Z,13.60
2022-09-28T00:40:56.704Z,12.23
2022-09-28T00:43:43.629Z,11.47
2022-09-28T00:46:34.688Z,12.60
2022-09-28T00:49:32.113Z,11.57
2022-09-28T00:52:42.082Z,10.23
2022-09-28T00:55:44.547Z,13.67
2022-09-28T00:58:34.737Z,14.63
2022-09-28T01:01:22.308Z,14.00
2022-09-28T01:04:09.280Z,13.83
2022-09-28T01:06:57.982Z,14.23
2022-09-28T01:09:45.810Z,12.03
2022-09-28T01:12:32.745Z,13.83
2022-09-28T01:15:21.784Z,15.93
2022-09-28T01:18:15.208Z,15.27
2022-09-28T01:21:09.116Z,14.00
2022-09-28T01:23:58.840Z,14.33
2022-09-28T01:27:04.657Z,17.77
2022-09-28T01:30:16.521Z,15.27
2022-09-28T01:33:10.337Z,16.93
2022-09-28T01:36:03.863Z,16.27
2022-09-28T01:38:55.792Z,22.00
2022-09-28T01:41:45.889Z,19.93
2022-09-28T01:44:39.812Z,21.17
2022-09-28T01:47:29.718Z,17.93
2022-09-28T01:50:20.855Z,17.37
2022-09-28T01:53:35.651Z,17.57
2022-09-28T01:56:27.964Z,17.33
2022-09-28T01:59:22.873Z,19.70
2022-09-28T02:02:25.712Z,17.73
2022-09-28T02:05:29.541Z,17.13
2022-09-28T02:08:26.806Z,18.03
2022-09-28T02:11:16.131Z,18.30
2022-09-28T02:14:10.852Z,18.47
2022-09-28T02:16:58.384Z,20.03
2022-09-28T02:19:45.297Z,20.40
2022-09-28T02:22:40.512Z,20.43
2022-09-28T02:25:39.564Z,22.73
2022-09-28T02:28:26.510Z,19.40
2022-09-28T02:31:13.420Z,21.63
2022-09-28T02:34:00.457Z,20.13
2022-09-28T02:36:47.585Z,20.40
2022-09-28T02:39:34.493Z,19.07
2022-09-28T02:42:27.234Z,18.17
2022-09-28T02:45:24.097Z,18.80
2022-09-28T02:48:43.273Z,18.63
2022-09-28T02:51:43.231Z,19.97
2022-09-28T02:54:55.418Z,20.17
2022-09-28T02:57:51.475Z,21.03
2022-09-28T03:01:01.678Z,20.67
2022-09-28T03:04:04.531Z,22.80
2022-09-28T03:07:19.911Z,19.93
2022-09-28T03:10:47.384Z,26.97
2022-09-28T03:13:35.103Z,18.10
2022-09-28T03:16:22.069Z,19.67
2022-09-28T03:19:09.003Z,22.00
2022-09-28T03:21:55.875Z,19.10
2022-09-28T03:24:42.743Z,17.80
2022-09-28T03:27:29.617Z,19.60
2022-09-28T03:30:16.610Z,19.40
2022-09-28T03:33:04.264Z,18.47
2022-09-28T03:35:51.553Z,22.10
2022-09-28T03:38:38.808Z,15.93
2022-09-28T03:41:27.800Z,19.17
2022-09-28T03:44:14.727Z,16.63
2022-09-28T03:47:01.720Z,16.63
2022-09-28T03:49:48.967Z,19.10
2022-09-28T03:52:35.824Z,17.63
2022-09-28T03:55:22.732Z,22.53
2022-09-28T03:58:09.621Z,21.97
2022-09-28T04:01:05.138Z,20.50
2022-09-28T04:03:55.919Z,20.97
2022-09-28T04:06:43.156Z,22.50
2022-09-28T04:09:30.029Z,22.00
2022-09-28T04:12:16.942Z,24.23
2022-09-28T04:15:04.184Z,20.57
2022-09-28T04:17:52.092Z,22.83
2022-09-28T04:20:41.399Z,21.20
2022-09-28T04:23:28.275Z,21.07
2022-09-28T04:26:22.882Z,19.70
2022-09-28T04:29:16.639Z,23.70
2022-09-28T04:32:03.900Z,23.23
2022-09-28T04:34:51.816Z,21.30
2022-09-28T04:37:38.691Z,25.37
2022-09-28T04:40:25.605Z,19.67
2022-09-28T04:43:12.498Z,22.77
2022-09-28T04:46:01.110Z,26.63
2022-09-28T04:48:48.086Z,20.23
2022-09-28T04:51:34.971Z,19.73
2022-09-28T04:54:21.897Z,21.20
2022-09-28T04:57:09.010Z,20.30
2022-09-28T04:59:55.920Z,22.77
2022-09-28T05:02:42.855Z,25.67
2022-09-28T05:05:29.815Z,24.00
2022-09-28T05:08:17.442Z,23.47
2022-09-28T05:11:06.713Z,22.87
2022-09-28T05:13:53.733Z,23.33
2022-09-28T05:16:40.804Z,23.80
2022-09-28T05:19:27.834Z,26.20
2022-09-28T05:22:15.779Z,23.50
2022-09-28T05:25:02.867Z,24.60
2022-09-28T05:27:55.987Z,23.67
2022-09-28T05:30:42.894Z,22.67
2022-09-28T05:33:30.988Z,25.70
2022-09-28T05:36:17.921Z,29.17
2022-09-28T05:39:05.080Z,28.30
2022-09-28T05:41:52.019Z,27.10
2022-09-28T05:44:38.900Z,26.17
2022-09-28T05:47:27.087Z,27.20
2022-09-28T05:50:15.953Z,32.27
2022-09-28T05:53:06.260Z,28.73
2022-09-28T05:55:57.012Z,33.67
2022-09-28T05:58:43.929Z,47.60
2022-09-28T06:01:30.898Z,30.43
2022-09-28T06:04:17.955Z,34.20
2022-09-28T06:07:04.960Z,30.23
2022-09-28T06:09:51.911Z,31.63
2022-09-28T06:12:38.822Z,32.53
2022-09-28T06:15:27.797Z,28.73
2022-09-28T06:18:14.922Z,31.17
2022-09-28T06:21:02.711Z,31.47
2022-09-28T06:23:49.665Z,26.57
2022-09-28T06:26:36.608Z,29.10
2022-09-28T06:29:23.493Z,29.57
2022-09-28T06:32:12.288Z,26.23
2022-09-28T06:34:59.192Z,30.17
2022-09-28T06:37:46.287Z,26.90
2022-09-28T06:40:34.120Z,29.40
2022-09-28T06:43:21.635Z,27.63
2022-09-28T06:46:10.003Z,26.40
2022-09-28T06:48:56.931Z,31.80
2022-09-28T06:51:45.699Z,26.97
2022-09-28T06:54:32.716Z,27.90
2022-09-28T06:57:19.632Z,24.93
2022-09-28T07:00:07.125Z,23.97
2022-09-28T07:02:54.092Z,23.23
2022-09-28T07:05:44.453Z,21.80
2022-09-28T07:08:31.501Z,23.23
2022-09-28T07:11:20.319Z,22.10
2022-09-28T07:14:12.276Z,21.80
2022-09-28T07:17:12.313Z,20.47
2022-09-28T07:20:12.525Z,24.63
2022-09-28T07:23:17.182Z,23.70
2022-09-28T07:26:08.545Z,23.07
2022-09-28T07:28:56.233Z,20.13
2022-09-28T07:31:43.118Z,20.57
2022-09-28T07:34:30.088Z,22.03
2022-09-28T07:37:18.838Z,23.67
2022-09-28T07:40:25.711Z,21.43
2022-09-28T07:43:16.973Z,19.20
2022-09-28T07:46:04.423Z,18.63
2022-09-28T07:48:51.730Z,19.23
2022-09-28T07:51:38.664Z,20.40
2022-09-28T07:54:25.656Z,18.30
2022-09-28T07:57:12.556Z,21.43
2022-09-28T08:00:00.598Z,19.00
2022-09-28T08:02:48.322Z,20.07
2022-09-28T08:05:35.798Z,17.37
2022-09-28T08:08:22.686Z,16.10
2022-09-28T08:11:11.141Z,18.30
2022-09-28T08:14:00.042Z,18.90
2022-09-28T08:16:49.543Z,17.87
2022-09-28T08:19:57.809Z,18.83
2022-09-28T08:22:45.241Z,15.73
2022-09-28T08:25:32.106Z,16.17
2022-09-28T08:28:19.291Z,17.60
2022-09-28T08:31:07.286Z,16.23
2022-09-28T08:33:54.378Z,17.30
2022-09-28T08:36:41.259Z,17.97
2022-09-28T08:39:28.159Z,17.20
2022-09-28T08:42:15.621Z,17.57
2022-09-28T08:45:09.119Z,18.27
2022-09-28T08:48:23.487Z,18.43
2022-09-28T08:51:20.375Z,21.47
2022-09-28T08:54:18.628Z,18.87
2022-09-28T08:57:15.335Z,15.50
2022-09-28T09:00:08.194Z,15.00
2022-09-28T09:02:57.948Z,15.60
2022-09-28T09:06:02.702Z,16.30
2022-09-28T09:09:09.075Z,15.30
2022-09-28T09:12:22.823Z,14.67
2022-09-28T09:15:40.489Z,18.73
2022-09-28T09:18:38.036Z,18.60
2022-09-28T09:21:41.902Z,14.37
2022-09-28T09:24:55.157Z,18.87
2022-09-28T09:27:52.060Z,14.97
2022-09-28T09:31:10.618Z,17.00
2022-09-28T09:34:17.763Z,16.87
2022-09-28T09:37:39.993Z,16.17
2022-09-28T09:40:44.341Z,14.57
2022-09-28T09:44:04.259Z,12.23
2022-09-28T09:47:06.055Z,17.37
2022-09-28T09:50:05.318Z,14.00
2022-09-28T09:53:24.945Z,15.00
2022-09-28T09:56:20.919Z,13.87
2022-09-28T09:59:33.630Z,13.90
2022-09-28T10:02:24.551Z,12.20
2022-09-28T10:05:11.435Z,13.33
2022-09-28T10:08:09.495Z,15.57
2022-09-28T10:11:09.358Z,14.53
2022-09-28T10:13:57.688Z,14.47
2022-09-28T10:16:48.418Z,16.37
2022-09-28T10:19:36.512Z,15.47
2022-09-28T10:22:27.318Z,14.07
2022-09-28T10:25:15.366Z,12.30
2022-09-28T10:28:06.131Z,14.33
2022-09-28T10:30:53.143Z,15.13
2022-09-28T10:33:40.105Z,13.80
2022-09-28T10:36:27.610Z,16.80
2022-09-28T10:39:48.103Z,15.53
2022-09-28T10:42:36.127Z,12.67
2022-09-28T10:45:23.673Z,12.87
2022-09-28T10:48:20.839Z,10.23
2022-09-28T10:51:08.238Z,11.70
2022-09-28T10:54:02.787Z,12.33
2022-09-28T10:56:50.740Z,12.93
2022-09-28T10:59:40.627Z,12.97
2022-09-28T11:02:35.774Z,11.97
2022-09-28T11:05:28.893Z,11.13
2022-09-28T11:08:18.930Z,12.33
2022-09-28T11:11:07.909Z,11.27
2022-09-28T11:14:00.981Z,11.37
2022-09-28T11:16:47.944Z,11.37
2022-09-28T11:19:35.533Z,9.93
2022-09-28T11:22:28.635Z,11.43
2022-09-28T11:25:18.476Z,11.40
2022-09-28T11:28:05.542Z,9.87
2022-09-28T11:30:53.322Z,9.37
2022-09-28T11:33:44.735Z,10.80
2022-09-28T11:36:47.205Z,9.60
2022-09-28T11:39:48.897Z,10.80
2022-09-28T11:42:50.798Z,10.07
2022-09-28T11:46:07.213Z,12.77
2022-09-28T11:49:20.583Z,10.20
2022-09-28T11:52:14.546Z,12.03
2022-09-28T11:55:10.278Z,15.70
2022-09-28T11:58:10.086Z,12.97
2022-09-28T12:01:15.400Z,10.80
2022-09-28T12:04:41.766Z,11.30
2022-09-28T12:07:40.336Z,12.57
2022-09-28T12:10:45.566Z,10.20
2022-09-28T12:13:39.804Z,12.10
2022-09-28T12:17:04.992Z,12.23
2022-09-28T12:20:01.570Z,10.20
2022-09-28T12:22:59.746Z,9.13
2022-09-28T12:25:53.275Z,10.27
2022-09-28T12:28:45.806Z,9.43
2022-09-28T12:31:42.250Z,10.57
2022-09-28T12:34:29.132Z,10.00
2022-09-28T12:37:29.039Z,10.27
2022-09-28T12:40:32.341Z,9.87
2022-09-28T12:43:40.908Z,9.70
2022-09-28T12:46:46.642Z,9.17
2022-09-28T12:50:37.038Z,8.00
2022-09-28T12:53:23.450Z,9.60
2022-09-28T12:56:24.387Z,9.17
2022-09-28T12:59:33.771Z,9.37
2022-09-28T13:03:00.777Z,9.73
2022-09-28T13:05:59.070Z,9.50
2022-09-28T13:09:24.971Z,8.83
2022-09-28T13:12:19.772Z,9.13
2022-09-28T13:15:38.150Z,8.77
2022-09-28T13:18:26.059Z,11.30
2022-09-28T13:21:29.837Z,10.43
2022-09-28T13:24:32.858Z,13.70
2022-09-28T13:27:31.508Z,10.70
2022-09-28T13:30:19.327Z,9.33
2022-09-28T13:33:10.524Z,9.93
2022-09-28T13:35:57.451Z,10.67
2022-09-28T13:38:49.698Z,9.97
2022-09-28T13:41:38.532Z,9.53
2022-09-28T13:44:50.696Z,11.90
2022-09-28T13:48:11.644Z,10.20
2022-09-28T13:51:07.646Z,9.30
2022-09-28T13:54:25.366Z,9.53
2022-09-28T13:57:34.386Z,9.10
2022-09-28T14:00:30.528Z,9.33
2022-09-28T14:03:44.153Z,8.40
2022-09-28T14:06:32.810Z,7.77
2022-09-28T14:09:40.890Z,8.90
2022-09-28T14:12:33.596Z,7.90
2022-09-28T14:15:29.363Z,9.47
2022-09-28T14:18:20.467Z,8.43
2022-09-28T14:21:40.983Z,8.63
2022-09-28T14:25:05.699Z,8.60
2022-09-28T14:28:26.815Z,6.27
2022-09-28T14:31:23.813Z,4.73
2022-09-28T14:34:25.652Z,3.80
2022-09-28T14:37:43.361Z,5.40
2022-09-28T14:40:54.786Z,5.80
2022-09-28T14:43:44.743Z,6.47
2022-09-28T14:46:44.307Z,7.93
2022-09-28T14:49:34.120Z,8.53
2022-09-28T14:52:39.764Z,12.20
2022-09-28T14:55:32.724Z,9.33
2022-09-28T14:58:26.647Z,32.13
2022-09-28T15:01:20.303Z,58.60
2022-09-28T15:04:11.511Z,40.77
2022-09-28T15:06:59.199Z,15.83
2022-09-28T15:09:49.554Z,21.13
2022-09-28T15:12:36.508Z,13.37
2022-09-28T15:15:38.702Z,10.47
2022-09-28T15:18:33.823Z,8.73
2022-09-28T15:21:21.402Z,8.47
2022-09-28T15:25:00.010Z,7.50
2022-09-28T15:27:54.871Z,5.47
2022-09-28T15:30:41.786Z,4.63
2022-09-28T15:33:52.681Z,6.07
2022-09-28T15:36:42.109Z,5.10
2022-09-28T15:39:32.198Z,4.67
2022-09-28T15:42:19.367Z,5.87
2022-09-28T15:45:25.383Z,3.40
2022-09-28T15:48:18.634Z,3.93
2022-09-28T15:51:10.828Z,3.43
2022-09-28T15:54:00.912Z,2.87
2022-09-28T15:56:59.729Z,4.43
2022-09-28T15:59:56.739Z,3.37
2022-09-28T16:03:00.793Z,2.40
2022-09-28T16:06:05.483Z,2.70
2022-09-28T16:08:52.451Z,4.60
2022-09-28T16:11:40.791Z,3.53
2022-09-28T16:14:27.751Z,4.23
2022-09-28T16:17:32.416Z,5.43
2022-09-28T16:20:35.473Z,5.10
2022-09-28T16:23:33.139Z,6.00
2022-09-28T16:26:35.580Z,6.67
2022-09-28T16:29:27.181Z,5.67
2022-09-28T16:32:26.326Z,5.30
2022-09-28T16:35:18.651Z,3.83
2022-09-28T16:38:16.915Z,5.53
2022-09-28T16:41:04.453Z,5.10
2022-09-28T16:43:56.335Z,5.00
2022-09-28T16:46:44.682Z,6.60
2022-09-28T16:49:32.847Z,5.67
2022-09-28T16:52:39.700Z,4.67
2022-09-28T16:55:39.917Z,4.17
2022-09-28T16:58:28.869Z,4.97
2022-09-28T17:01:15.864Z,4.80
2022-09-28T17:04:03.243Z,4.20
2022-09-28T17:06:53.575Z,4.67
2022-09-28T17:09:40.549Z,4.90
2022-09-28T17:12:29.174Z,4.27
2022-09-28T17:15:18.759Z,4.23
2022-09-28T17:18:06.875Z,2.93
2022-09-28T17:20:56.670Z,5.93
2022-09-28T17:23:44.811Z,14.67
2022-09-28T17:26:33.381Z,10.23
2022-09-28T17:29:20.448Z,7.80
2022-09-28T17:32:21.735Z,3.80
2022-09-28T17:35:23.494Z,4.37
2022-09-28T17:38:12.993Z,4.57
2022-09-28T17:40:59.957Z,3.00
2022-09-28T17:43:47.469Z,3.13
2022-09-28T17:46:38.347Z,5.63
2022-09-28T17:49:26.589Z,3.43
2022-09-28T17:52:13.641Z,2.67
2022-09-28T17:55:00.503Z,2.60
2022-09-28T17:57:47.593Z,4.50
2022-09-28T18:00:35.547Z,3.83
2022-09-28T18:03:24.834Z,3.23
2022-09-28T18:06:19.705Z,5.03
2022-09-28T18:09:08.552Z,5.63
2022-09-28T18:12:03.199Z,4.00
2022-09-28T18:14:50.402Z,5.80
2022-09-28T18:17:38.121Z,4.07
2022-09-28T18:20:25.575Z,5.00
2022-09-28T18:23:13.012Z,5.63
2022-09-28T18:25:59.956Z,5.53
2022-09-28T18:28:46.977Z,4.33
2022-09-28T18:31:34.094Z,5.07
2022-09-28T18:34:21.026Z,4.73
2022-09-28T18:37:08.385Z,4.63
2022-09-28T18:39:55.423Z,6.43
2022-09-28T18:42:42.537Z,8.23
2022-09-28T18:45:29.809Z,7.60
2022-09-28T18:48:16.726Z,10.20
2022-09-28T18:51:08.448Z,7.57
2022-09-28T18:53:55.760Z,7.17
2022-09-28T18:56:42.861Z,6.90
2022-09-28T18:59:30.086Z,4.27
2022-09-28T19:02:17.163Z,8.47
2022-09-28T19:05:05.619Z,4.53
2022-09-28T19:07:52.938Z,5.90
2022-09-28T19:10:39.857Z,4.37
2022-09-28T19:13:28.331Z,7.47
2022-09-28T19:16:21.178Z,6.17
2022-09-28T19:19:12.236Z,5.57
2022-09-28T19:21:59.436Z,5.83
2022-09-28T19:24:46.426Z,4.33
2022-09-28T19:27:33.458Z,4.73
2022-09-28T19:30:20.345Z,5.40
2022-09-28T19:33:07.283Z,5.93
2022-09-28T19:35:58.945Z,8.03
2022-09-28T19:38:46.289Z,6.27
2022-09-28T19:41:44.303Z,8.13
2022-09-28T19:44:33.391Z,8.80
2022-09-28T19:47:21.624Z,8.23
2022-09-28T19:50:10.166Z,7.47
2022-09-28T19:53:01.531Z,6.73
2022-09-28T19:55:53.660Z,4.53
2022-09-28T19:58:40.600Z,5.40
2022-09-28T20:01:31.480Z,7.17
2022-09-28T20:04:18.804Z,6.10
2022-09-28T20:07:05.912Z,6.33
2022-09-28T20:09:52.843Z,6.43
2022-09-28T20:12:42.096Z,9.10
2022-09-28T20:15:29.073Z,5.73
2022-09-28T20:18:16.457Z,6.67
2022-09-28T20:21:05.551Z,6.93
2022-09-28T20:23:59.146Z,5.37
2022-09-28T20:26:46.263Z,6.70
2022-09-28T20:29:33.367Z,5.83
2022-09-28T20:32:20.999Z,6.20
2022-09-28T20:35:08.375Z,6.17
2022-09-28T20:37:59.124Z,8.10
2022-09-28T20:40:46.660Z,8.17
2022-09-28T20:43:34.832Z,7.30
2022-09-28T20:46:22.175Z,6.97
2022-09-28T20:49:09.227Z,7.73
2022-09-28T20:51:56.142Z,6.80
2022-09-28T20:54:43.075Z,6.37
2022-09-28T20:57:30.008Z,8.43
2022-09-28T21:00:17.012Z,7.53
2022-09-28T21:03:04.078Z,8.77
2022-09-28T21:05:51.533Z,11.37
2022-09-28T21:08:38.427Z,14.57
2022-09-28T21:11:27.990Z,15.77
2022-09-28T21:14:15.047Z,14.47
2022-09-28T21:17:01.984Z,13.20
2022-09-28T21:19:48.913Z,12.57
2022-09-28T21:22:35.824Z,14.97
2022-09-28T21:25:22.849Z,14.83
2022-09-28T21:28:09.803Z,17.30
2022-09-28T21:30:56.799Z,13.13
2022-09-28T21:33:43.756Z,13.33
2022-09-28T21:36:31.111Z,10.70
2022-09-28T21:39:18.728Z,12.90
2022-09-28T21:42:05.786Z,11.47
2022-09-28T21:44:56.299Z,13.77
2022-09-28T21:47:52.718Z,15.43
2022-09-28T21:50:39.762Z,12.73
2022-09-28T21:53:29.677Z,13.03
2022-09-28T21:56:16.617Z,14.67
2022-09-28T21:59:03.610Z,12.97
2022-09-28T22:01:50.629Z,14.40
2022-09-28T22:04:37.853Z,13.47
2022-09-28T22:07:25.030Z,16.13
2022-09-28T22:10:14.095Z,12.90
2022-09-28T22:13:01.462Z,12.63
2022-09-28T22:15:53.378Z,13.80
2022-09-28T22:18:41.055Z,15.17
2022-09-28T22:21:31.859Z,16.63
2022-09-28T22:24:18.830Z,16.40
2022-09-28T22:27:05.846Z,16.03
2022-09-28T22:29:52.746Z,16.17
2022-09-28T22:32:39.667Z,15.67
2022-09-28T22:35:26.577Z,15.07
2022-09-28T22:38:13.504Z,13.13
2022-09-28T22:41:02.458Z,15.30
2022-09-28T22:43:50.738Z,14.67
2022-09-28T22:46:37.745Z,19.07
2022-09-28T22:49:25.050Z,14.87
2022-09-28T22:52:11.971Z,17.93
2022-09-28T22:54:58.921Z,14.97
2022-09-28T22:57:45.887Z,16.43
2022-09-28T23:00:32.846Z,15.03
2022-09-28T23:03:19.749Z,16.37
2022-09-28T23:06:07.789Z,13.73
2022-09-28T23:08:54.781Z,16.47
2022-09-28T23:11:41.711Z,15.80
2022-09-28T23:14:28.633Z,16.63
2022-09-28T23:17:15.551Z,14.57
2022-09-28T23:20:02.862Z,14.03
2022-09-28T23:22:50.097Z,14.93
2022-09-28T23:25:37.009Z,14.97
2022-09-28T23:28:25.426Z,16.23
2022-09-28T23:31:16.061Z,15.47
2022-09-28T23:34:06.351Z,15.03
2022-09-28T23:36:53.548Z,15.27
2022-09-28T23:39:40.476Z,15.07
2022-09-28T23:42:27.400Z,17.43
2022-09-28T23:45:14.337Z,17.03
2022-09-28T23:48:01.613Z,18.77
2022-09-28T23:50:48.547Z,17.37
2022-09-28T23:53:35.530Z,17.90
2022-09-28T23:56:22.461Z,17.33
2022-09-28T23:59:09.406Z,15.80
